Time;durP1;ratioP1;P1;durP2;ratioP2;P2;SDS_P1;SDS_P2;PMS_P1;PMS_P2;Temp;Humidity;BMP_temperature;BMP_pressure;BME280_temperature;BME280_humidity;BME280_pressure;Samples;Min_cycle;Max_cycle;Signal;HPM_P1;HPM_P2
2022/05/25 00:01:04;;;;;;;;;;;;;;;14.80;55.47;100231.66;5008995;28;6885;-76
2022/05/25 00:03:32;;;;;;;;;;;;;;;14.79;56.02;100236.78;4982412;28;6819;-76
2022/05/25 00:05:59;;;;;;;;;;;;;;;14.75;55.80;100238.41;4976182;28;8127;-74
2022/05/25 00:08:25;;;;;;;;;;;;;;;14.74;55.89;100241.81;4980509;28;7066;-74
2022/05/25 00:10:51;;;;;;;;;;;;;;;14.71;55.56;100233.97;4977500;28;6865;-74
2022/05/25 00:13:17;;;;;;;;;;;;;;;14.70;56.10;100229.63;4973728;28;6819;-74
2022/05/25 00:15:43;;;;;;;;;;;;;;;14.69;56.61;100228.75;5008052;28;7245;-74
2022/05/25 00:18:09;;;;;;;;;;;;;;;14.69;55.74;100233.91;4978458;28;6986;-74
2022/05/25 00:20:35;;;;;;;;;;;;;;;14.71;56.32;100239.13;4974069;28;7131;-74
2022/05/25 00:23:02;;;;;;;;;;;;;;;14.70;56.29;100238.22;5005658;28;6788;-74
2022/05/25 00:25:33;;;;;;;;;;;;;;;14.69;56.79;100243.38;4974874;28;7329;-74
2022/05/25 00:28:11;;;;;;;;;;;;;;;14.70;56.62;100240.81;5007511;28;6823;-73
2022/05/25 00:30:40;;;;;;;;;;;;;;;14.69;55.85;100239.06;4974636;28;6845;-73
2022/05/25 00:33:06;;;;;;;;;;;;;;;14.72;56.18;100248.59;4972114;28;6964;-73
2022/05/25 00:35:35;;;;;;;;;;;;;;;14.73;56.07;100245.22;4991306;28;6795;-73
2022/05/25 00:38:03;;;;;;;;;;;;;;;14.74;56.76;100243.53;4975187;28;6816;-73
2022/05/25 00:40:39;;;;;;;;;;;;;;;14.75;57.07;100248.72;4974194;28;6904;-73
2022/05/25 00:43:07;;;;;;;;;;;;;;;14.77;56.81;100252.19;4973374;28;6816;-73
2022/05/25 00:45:49;;;;;;;;;;;;;;;14.77;56.28;100262.53;4988334;28;7187;-73
2022/05/25 00:48:46;;;;;;;;;;;;;;;14.77;56.20;100262.53;4972713;28;7047;-73
2022/05/25 00:51:30;;;;;;;;;;;;;;;14.75;56.07;100253.88;4970746;28;6907;-73
2022/05/25 00:54:10;;;;;;;;;;;;;;;14.74;56.98;100254.72;4972228;28;6986;-73
2022/05/25 00:56:43;;;;;;;;;;;;;;;14.71;56.44;100252.88;4967173;28;6816;-73
2022/05/25 00:59:16;;;;;;;;;;;;;;;14.71;55.98;100255.44;4976921;28;6827;-73
2022/05/25 01:01:43;;;;;;;;;;;;;;;14.71;56.31;100263.19;4967587;28;6908;-73
2022/05/25 01:04:11;;;;;;;;;;;;;;;14.72;56.70;100266.66;4973414;28;6812;-73
2022/05/25 01:06:52;;;;;;;;;;;;;;;14.71;56.68;100260.59;4972189;28;7035;-73
2022/05/25 01:09:37;;;;;;;;;;;;;;;14.71;57.04;100267.50;4985756;28;8500;-73
2022/05/25 01:12:34;;;;;;;;;;;;;;;14.68;56.12;100275.16;4999719;28;8496;-73
2022/05/25 01:15:39;;;;;;;;;;;;;;;14.65;57.02;100277.63;4986238;28;7324;-73
2022/05/25 01:18:26;;;;;;;;;;;;;;;14.63;56.36;100271.56;4995915;28;8620;-73
2022/05/25 01:21:31;;;;;;;;;;;;;;;14.62;56.62;100278.41;4995466;28;8429;-73
2022/05/25 01:24:20;;;;;;;;;;;;;;;14.61;57.38;100280.94;4938363;28;7279;-73
2022/05/25 01:27:32;;;;;;;;;;;;;;;14.62;57.17;100280.97;4978565;28;6800;-73
2022/05/25 01:30:04;;;;;;;;;;;;;;;14.58;57.26;100287.78;4972301;28;6832;-73
2022/05/25 01:33:30;;;;;;;;;;;;;;;14.57;56.44;100291.16;4976229;28;6823;-73
2022/05/25 01:36:28;;;;;;;;;;;;;;;14.56;56.42;100289.41;4965848;28;6883;-73
2022/05/25 01:39:09;;;;;;;;;;;;;;;14.54;57.35;100291.06;4974993;28;7099;-73
2022/05/25 01:41:49;;;;;;;;;;;;;;;14.57;57.24;100290.31;4972366;28;7889;-73
2022/05/25 01:44:26;;;;;;;;;;;;;;;14.56;57.37;100289.41;5003311;28;7936;-73
2022/05/25 01:46:58;;;;;;;;;;;;;;;14.57;56.56;100295.47;5006045;28;7373;-73
2022/05/25 01:49:33;;;;;;;;;;;;;;;14.56;56.66;100299.72;5005067;28;6808;-73
2022/05/25 01:52:09;;;;;;;;;;;;;;;14.55;56.50;100303.13;4942896;28;8639;-73
2022/05/25 01:54:46;;;;;;;;;;;;;;;14.54;56.83;100301.38;5008450;28;7250;-73
2022/05/25 01:57:14;;;;;;;;;;;;;;;14.54;57.01;100310.84;5006090;28;6895;-74
2022/05/25 01:59:43;;;;;;;;;;;;;;;14.53;57.10;100306.50;5004064;28;6914;-74
2022/05/25 02:04:59;;;;;;;;;;;;;;;14.49;57.33;100308.13;5002479;28;6907;-74
2022/05/25 02:08:25;;;;;;;;;;;;;;;14.48;57.16;100308.94;5005571;28;6820;-73
2022/05/25 02:11:17;;;;;;;;;;;;;;;14.44;56.71;100307.09;4976528;28;8564;-73
2022/05/25 02:14:05;;;;;;;;;;;;;;;14.45;57.49;100306.28;4986157;28;7039;-73
2022/05/25 02:16:59;;;;;;;;;;;;;;;14.42;57.55;100316.50;4976708;28;7027;-73
2022/05/25 02:19:45;;;;;;;;;;;;;;;14.40;57.64;100318.16;5002741;28;6819;-73
2022/05/25 02:22:24;;;;;;;;;;;;;;;14.38;57.77;100320.69;4987249;28;7923;-73
2022/05/25 02:25:08;;;;;;;;;;;;;;;14.38;56.77;100315.53;5006177;28;6972;-73
2022/05/25 02:27:47;;;;;;;;;;;;;;;14.36;57.26;100327.50;4975692;28;6919;-73
2022/05/25 02:30:18;;;;;;;;;;;;;;;14.34;57.47;100321.44;4975578;28;8080;-73
2022/05/25 02:32:56;;;;;;;;;;;;;;;14.34;56.82;100334.31;4990391;28;7132;-73
2022/05/25 02:36:08;;;;;;;;;;;;;;;14.33;57.57;100329.97;5004333;28;6812;-73
2022/05/25 02:38:37;;;;;;;;;;;;;;;14.30;57.37;100333.34;4973984;28;6815;-73
2022/05/25 02:41:10;;;;;;;;;;;;;;;14.30;57.17;100332.44;5003147;28;6994;-73
2022/05/25 02:43:38;;;;;;;;;;;;;;;14.31;57.42;100339.34;5006388;28;6804;-73
2022/05/25 02:46:08;;;;;;;;;;;;;;;14.30;57.63;100333.34;4978739;28;6899;-73
2022/05/25 02:48:36;;;;;;;;;;;;;;;14.28;56.99;100345.28;4973621;28;7232;-73
2022/05/25 02:51:02;;;;;;;;;;;;;;;14.25;57.25;100340.03;4989604;28;6808;-73
2022/05/25 02:53:28;;;;;;;;;;;;;;;14.24;57.54;100339.97;5005227;28;6974;-73
2022/05/25 02:55:54;;;;;;;;;;;;;;;14.21;56.74;100338.19;4989531;28;6768;-74
2022/05/25 02:58:19;;;;;;;;;;;;;;;14.21;57.88;100342.47;4974040;28;7198;-73
2022/05/25 03:00:45;;;;;;;;;;;;;;;14.20;57.34;100341.59;4970768;28;7839;-73
2022/05/25 03:03:12;;;;;;;;;;;;;;;14.19;57.95;100341.53;5000152;28;6929;-73
2022/05/25 03:05:41;;;;;;;;;;;;;;;14.16;57.82;100345.78;4973222;28;7881;-73
2022/05/25 03:08:08;;;;;;;;;;;;;;;14.15;57.76;100349.19;4995568;28;7875;-73
2022/05/25 03:10:34;;;;;;;;;;;;;;;14.14;58.11;100346.56;4977792;28;6791;-73
2022/05/25 03:12:59;;;;;;;;;;;;;;;14.14;58.02;100354.28;4968923;28;6900;-73
2022/05/25 03:15:26;;;;;;;;;;;;;;;14.13;57.26;100355.13;5000837;28;6863;-73
2022/05/25 03:17:52;;;;;;;;;;;;;;;14.12;57.34;100353.38;4990632;28;6819;-73
2022/05/25 03:20:18;;;;;;;;;;;;;;;14.11;58.21;100357.63;4967679;28;8351;-73
2022/05/25 03:22:44;;;;;;;;;;;;;;;14.12;57.26;100353.38;4971983;28;6784;-73
2022/05/25 03:25:11;;;;;;;;;;;;;;;14.12;58.10;100358.53;4975055;28;6787;-74
2022/05/25 03:27:38;;;;;;;;;;;;;;;14.11;57.09;100367.09;5005641;28;6928;-74
2022/05/25 03:30:06;;;;;;;;;;;;;;;14.10;57.05;100365.31;5006694;28;6911;-74
2022/05/25 03:32:32;;;;;;;;;;;;;;;14.09;57.31;100369.59;4973255;28;6993;-74
2022/05/25 03:34:59;;;;;;;;;;;;;;;14.08;57.66;100365.28;4975287;28;6883;-74
2022/05/25 03:37:26;;;;;;;;;;;;;;;14.06;57.55;100372.09;4972850;28;6823;-74
2022/05/25 03:39:51;;;;;;;;;;;;;;;14.06;57.07;100376.34;4974386;28;6820;-74
2022/05/25 03:42:19;;;;;;;;;;;;;;;14.06;57.80;100378.94;4973170;28;6803;-74
2022/05/25 03:44:45;;;;;;;;;;;;;;;14.04;57.74;100371.13;4991713;28;6958;-74
2022/05/25 03:47:11;;;;;;;;;;;;;;;14.05;57.99;100382.34;4974554;28;7079;-73
2022/05/25 03:49:37;;;;;;;;;;;;;;;14.03;57.79;100383.16;4973931;28;6807;-74
2022/05/25 03:52:04;;;;;;;;;;;;;;;14.03;57.52;100388.31;4976839;28;7891;-74
2022/05/25 03:54:31;;;;;;;;;;;;;;;14.01;57.59;100384.81;4971914;28;6959;-74
2022/05/25 03:56:57;;;;;;;;;;;;;;;14.01;57.01;100384.81;5005153;28;8607;-74
2022/05/25 03:59:24;;;;;;;;;;;;;;;14.00;58.12;100402.78;5007804;28;7143;-74
2022/05/25 04:01:50;;;;;;;;;;;;;;;13.99;57.49;100398.47;5008758;28;6982;-74
2022/05/25 04:04:17;;;;;;;;;;;;;;;13.99;58.01;100399.31;5011050;28;6864;-74
2022/05/25 04:06:42;;;;;;;;;;;;;;;14.00;57.32;100395.94;5007736;28;6815;-74
2022/05/25 04:09:10;;;;;;;;;;;;;;;14.02;57.92;100394.28;5010194;28;7354;-74
2022/05/25 04:11:41;;;;;;;;;;;;;;;14.03;57.95;100397.72;5005548;28;6807;-74
2022/05/25 04:14:07;;;;;;;;;;;;;;;14.05;58.53;100398.69;4977683;28;7038;-74
2022/05/25 04:16:33;;;;;;;;;;;;;;;14.08;58.49;100403.03;5007712;28;7248;-74
2022/05/25 04:18:59;;;;;;;;;;;;;;;14.13;58.84;100401.50;5010502;28;8004;-74
2022/05/25 04:21:25;;;;;;;;;;;;;;;14.24;58.49;100407.88;4976708;28;6827;-74
2022/05/25 04:23:51;;;;;;;;;;;;;;;14.44;58.97;100410.25;5010172;28;6783;-74
2022/05/25 04:26:17;;;;;;;;;;;;;;;14.66;59.65;100408.34;4987997;28;8624;-74
2022/05/25 04:28:42;;;;;;;;;;;;;;;14.89;59.27;100411.66;5008872;28;8522;-74
2022/05/25 04:31:08;;;;;;;;;;;;;;;15.13;58.79;100408.09;5004221;28;6867;-74
2022/05/25 04:33:36;;;;;;;;;;;;;;;15.40;59.59;100413.16;4975216;28;7375;-74
2022/05/25 04:36:03;;;;;;;;;;;;;;;15.63;58.65;100407.75;4975379;28;7172;-74
2022/05/25 04:38:29;;;;;;;;;;;;;;;15.85;58.42;100408.34;4995945;28;6988;-74
2022/05/25 04:40:55;;;;;;;;;;;;;;;16.05;58.01;100405.44;4991657;28;6898;-74
2022/05/25 04:43:23;;;;;;;;;;;;;;;16.24;57.94;100405.06;4977064;28;6891;-74
2022/05/25 04:45:52;;;;;;;;;;;;;;;16.42;57.72;100406.34;5005727;28;6815;-74
2022/05/25 04:48:23;;;;;;;;;;;;;;;16.59;56.72;100418.78;4991986;28;6815;-74
2022/05/25 04:50:51;;;;;;;;;;;;;;;16.73;56.17;100412.25;5002418;28;6832;-73
2022/05/25 04:53:19;;;;;;;;;;;;;;;16.86;56.12;100409.94;5007110;28;6974;-73
2022/05/25 04:58:40;;;;;;;;;;;;;;;17.07;55.71;100414.75;4974186;28;6971;-74
2022/05/25 05:01:10;;;;;;;;;;;;;;;17.17;55.27;100423.56;4973865;28;6816;-74
2022/05/25 05:03:36;;;;;;;;;;;;;;;17.28;55.33;100427.25;5005866;28;6800;-74
2022/05/25 05:06:06;;;;;;;;;;;;;;;17.39;54.84;100429.22;4975762;28;7237;-74
2022/05/25 05:08:33;;;;;;;;;;;;;;;17.52;55.01;100422.53;5003922;28;6815;-74
2022/05/25 05:11:09;;;;;;;;;;;;;;;17.66;54.44;100421.09;4972854;28;6808;-74
2022/05/25 05:13:37;;;;;;;;;;;;;;;17.79;54.51;100421.31;4976719;28;6824;-74
2022/05/25 05:16:07;;;;;;;;;;;;;;;17.91;54.04;100419.84;5002310;28;6812;-74
2022/05/25 05:18:33;;;;;;;;;;;;;;;18.00;53.51;100423.44;4973024;28;6804;-74
2022/05/25 05:20:59;;;;;;;;;;;;;;;18.08;53.50;100421.91;4972876;28;6795;-74
2022/05/25 05:23:25;;;;;;;;;;;;;;;18.18;53.13;100425.50;4975904;28;6811;-74
2022/05/25 05:25:50;;;;;;;;;;;;;;;18.28;52.88;100427.41;4972835;28;6791;-74
2022/05/25 05:28:40;;;;;;;;;;;;;;;18.41;52.73;100430.22;4970832;28;6807;-74
2022/05/25 05:31:07;;;;;;;;;;;;;;;18.51;52.52;100429.53;4972431;28;9897;-74
2022/05/25 05:33:33;;;;;;;;;;;;;;;18.58;52.56;100433.09;4986336;28;6808;-74
2022/05/25 05:36:22;;;;;;;;;;;;;;;18.65;51.82;100436.63;4965198;28;6970;-74
2022/05/25 05:39:08;;;;;;;;;;;;;;;18.74;52.00;100432.47;4968290;28;6819;-74
2022/05/25 05:41:53;;;;;;;;;;;;;;;18.86;51.53;100433.50;5003615;28;6835;-74
2022/05/25 05:44:28;;;;;;;;;;;;;;;18.93;51.46;100444.84;5003206;28;7205;-74
2022/05/25 05:46:59;;;;;;;;;;;;;;;18.92;50.38;100432.72;5001967;28;6808;-74
2022/05/25 05:49:26;;;;;;;;;;;;;;;18.85;49.67;100436.94;4989276;28;6808;-74
2022/05/25 05:51:52;;;;;;;;;;;;;;;18.71;49.59;100445.38;4986320;28;7904;-74
2022/05/25 05:54:18;;;;;;;;;;;;;;;18.60;50.31;100446.94;5000794;28;6812;-74
2022/05/25 05:56:44;;;;;;;;;;;;;;;18.48;49.14;100441.56;4993076;28;7186;-74
2022/05/25 05:59:10;;;;;;;;;;;;;;;18.34;49.48;100434.41;4973406;28;6783;-74
2022/05/25 06:01:36;;;;;;;;;;;;;;;18.22;49.05;100436.81;4999682;28;6792;-74
2022/05/25 06:04:03;;;;;;;;;;;;;;;18.10;49.59;100453.03;4999835;28;7848;-74
2022/05/25 06:06:28;;;;;;;;;;;;;;;17.99;49.68;100458.00;5003345;28;7168;-74
2022/05/25 06:08:56;;;;;;;;;;;;;;;17.91;49.42;100450.06;4970232;28;7182;-74
2022/05/25 06:11:22;;;;;;;;;;;;;;;17.85;49.56;100450.81;4969911;28;6996;-74
2022/05/25 06:13:49;;;;;;;;;;;;;;;17.82;49.96;100455.97;4976688;28;6804;-74
2022/05/25 06:21:44;;;;;;;;;;;;;;;17.73;49.96;100460.97;4971420;28;6828;-74
2022/05/25 06:24:10;;;;;;;;;;;;;;;17.73;49.96;100464.44;4961567;28;7892;-74
2022/05/25 06:26:35;;;;;;;;;;;;;;;17.73;49.77;100458.38;4953363;28;6844;-74
2022/05/25 06:29:01;;;;;;;;;;;;;;;17.75;49.83;100459.28;4978177;28;7844;-74
2022/05/25 06:31:30;;;;;;;;;;;;;;;17.76;49.88;100453.25;4974583;28;6800;-74
2022/05/25 06:33:56;;;;;;;;;;;;;;;17.80;49.60;100455.06;4974142;28;6815;-74
2022/05/25 06:36:26;;;;;;;;;;;;;;;17.84;48.99;100459.44;5008006;28;7377;-74
2022/05/25 06:38:52;;;;;;;;;;;;;;;17.87;49.22;100463.81;4972565;28;6907;-74
2022/05/25 06:41:18;;;;;;;;;;;;;;;17.92;49.02;100462.22;4988733;28;7282;-74
2022/05/25 06:43:45;;;;;;;;;;;;;;;17.96;49.28;100464.00;5004626;28;7160;-74
2022/05/25 06:46:13;;;;;;;;;;;;;;;18.00;49.21;100464.94;4984414;28;6891;-74
2022/05/25 06:48:40;;;;;;;;;;;;;;;18.05;48.77;100478.88;5006370;28;6816;-74
2022/05/25 06:51:15;;;;;;;;;;;;;;;18.11;48.55;100478.16;4990353;28;6943;-74
2022/05/25 06:53:41;;;;;;;;;;;;;;;18.17;48.61;100479.13;4974196;28;6819;-74
2022/05/25 06:56:07;;;;;;;;;;;;;;;18.26;48.82;100486.19;4994765;28;6808;-74
2022/05/25 06:58:34;;;;;;;;;;;;;;;18.38;48.84;100482.94;5008964;28;6792;-74
2022/05/25 07:01:01;;;;;;;;;;;;;;;18.59;48.84;100476.34;4993126;28;6796;-74
2022/05/25 07:03:27;;;;;;;;;;;;;;;18.90;48.74;100484.63;4976540;28;6966;-74
2022/05/25 07:05:53;;;;;;;;;;;;;;;19.26;48.51;100482.53;5010167;28;6927;-74
2022/05/25 07:08:19;;;;;;;;;;;;;;;19.68;48.63;100480.47;5009018;28;7899;-74
2022/05/25 07:10:46;;;;;;;;;;;;;;;20.08;47.30;100477.47;4978171;28;6933;-74
2022/05/25 07:13:17;;;;;;;;;;;;;;;20.46;47.15;100476.97;4979503;28;8477;-74
2022/05/25 07:15:43;;;;;;;;;;;;;;;20.84;46.23;100485.94;4977517;28;6993;-74
2022/05/25 07:18:10;;;;;;;;;;;;;;;21.15;45.56;100482.66;5007956;28;6811;-74
2022/05/25 07:20:36;;;;;;;;;;;;;;;21.43;45.34;100486.28;4993288;28;6966;-74
2022/05/25 07:23:03;;;;;;;;;;;;;;;21.75;44.66;100490.78;4972043;28;6915;-75
2022/05/25 07:25:29;;;;;;;;;;;;;;;22.05;44.17;100483.91;4997728;28;6882;-75
2022/05/25 07:27:55;;;;;;;;;;;;;;;22.29;42.99;100473.50;5006401;28;7034;-75
2022/05/25 07:30:21;;;;;;;;;;;;;;;22.43;42.09;100486.56;5003857;28;6970;-75
2022/05/25 07:32:47;;;;;;;;;;;;;;;22.59;41.94;100482.22;4968458;28;6976;-75
2022/05/25 07:35:16;;;;;;;;;;;;;;;22.75;41.60;100477.88;5002270;28;6803;-75
2022/05/25 07:37:48;;;;;;;;;;;;;;;22.93;41.25;100489.16;4966763;28;9974;-75
2022/05/25 07:40:41;;;;;;;;;;;;;;;23.06;40.92;100496.09;5009642;28;6819;-75
2022/05/25 07:43:19;;;;;;;;;;;;;;;23.20;40.68;100495.22;4979561;28;7932;-75
2022/05/25 07:45:46;;;;;;;;;;;;;;;23.29;40.05;100485.59;4987958;28;6868;-75
2022/05/25 07:48:12;;;;;;;;;;;;;;;23.36;39.77;100496.06;4955820;28;7230;-75
2022/05/25 07:50:39;;;;;;;;;;;;;;;23.43;39.66;100493.41;4973416;28;7237;-75
2022/05/25 07:53:55;;;;;;;;;;;;;;;23.52;39.69;100492.50;4972631;28;6847;-74
2022/05/25 07:55:53;;;;;;;;;;;;;;;23.64;39.27;100498.56;4982919;28;6820;-74
2022/05/25 07:58:19;;;;;;;;;;;;;;;23.72;39.33;100497.63;4973015;28;7218;-74
2022/05/25 08:00:45;;;;;;;;;;;;;;;23.79;39.12;100495.84;4972504;28;7411;-74
2022/05/25 08:05:59;;;;;;;;;;;;;;;23.92;38.85;100496.66;4973806;28;7371;-74
2022/05/25 08:08:26;;;;;;;;;;;;;;;24.04;38.86;100493.13;4970975;28;6824;-74
2022/05/25 08:11:07;;;;;;;;;;;;;;;24.19;38.64;100494.78;4988731;28;6808;-74
2022/05/25 08:13:37;;;;;;;;;;;;;;;24.33;37.88;100494.69;5000175;28;6828;-74
2022/05/25 08:16:03;;;;;;;;;;;;;;;24.42;37.43;100493.72;4991334;28;7928;-75
2022/05/25 08:18:29;;;;;;;;;;;;;;;24.58;37.49;100491.00;4977399;28;6848;-75
2022/05/25 08:20:55;;;;;;;;;;;;;;;24.75;36.77;100498.69;4991121;28;7938;-75
2022/05/25 08:23:20;;;;;;;;;;;;;;;24.91;36.42;100494.19;4973389;28;6970;-75
2022/05/25 08:25:46;;;;;;;;;;;;;;;25.12;36.26;100502.75;4976810;28;7281;-74
2022/05/25 08:28:12;;;;;;;;;;;;;;;25.33;35.94;100494.63;4991113;28;7218;-74
2022/05/25 08:30:41;;;;;;;;;;;;;;;25.55;35.57;100497.00;4958157;28;6953;-74
2022/05/25 08:33:08;;;;;;;;;;;;;;;25.79;35.50;100500.22;4981987;28;7280;-74
2022/05/25 08:35:33;;;;;;;;;;;;;;;26.20;35.28;100496.13;4973304;28;7074;-74
2022/05/25 08:37:59;;;;;;;;;;;;;;;26.62;34.95;100492.84;4977399;28;6784;-75
2022/05/25 08:40:28;;;;;;;;;;;;;;;26.96;33.81;100490.50;4986400;28;7657;-75
2022/05/25 08:43:12;;;;;;;;;;;;;;;27.25;33.25;100489.94;4975686;28;6808;-75
2022/05/25 08:45:50;;;;;;;;;;;;;;;27.64;33.10;100488.31;5003224;28;7999;-75
2022/05/25 08:48:20;;;;;;;;;;;;;;;28.03;32.39;100485.66;4974214;28;6823;-75
2022/05/25 08:50:59;;;;;;;;;;;;;;;28.21;31.88;100488.81;5008321;28;6816;-75
2022/05/25 08:53:25;;;;;;;;;;;;;;;28.25;31.24;100487.81;4976098;28;7105;-75
2022/05/25 08:56:20;;;;;;;;;;;;;;;27.88;30.34;100496.53;5009259;28;7253;-75
2022/05/25 08:58:54;;;;;;;;;;;;;;;27.40;30.93;100493.16;4975203;28;6800;-75
2022/05/25 09:01:37;;;;;;;;;;;;;;;27.54;31.81;100487.59;4975508;28;6946;-75
2022/05/25 09:04:35;;;;;;;;;;;;;;;28.02;30.70;100491.84;4988792;28;6800;-75
2022/05/25 09:07:32;;;;;;;;;;;;;;;28.20;30.04;100492.31;5001723;28;6947;-75
2022/05/25 09:09:58;;;;;;;;;;;;;;;27.98;29.81;100488.41;5002884;28;7259;-75
2022/05/25 09:12:40;;;;;;;;;;;;;;;27.91;29.97;100496.47;4974199;28;6868;-75
2022/05/25 09:15:19;;;;;;;;;;;;;;;27.84;29.67;100488.72;4975057;28;7071;-75
2022/05/25 09:18:07;;;;;;;;;;;;;;;27.78;29.76;100483.59;4976135;28;6835;-75
2022/05/25 09:20:43;;;;;;;;;;;;;;;27.90;29.85;100485.09;4988626;28;6995;-75
2022/05/25 09:23:11;;;;;;;;;;;;;;;28.06;29.84;100474.22;4973773;28;6819;-75
2022/05/25 09:25:38;;;;;;;;;;;;;;;28.04;29.62;100481.25;5001275;28;6800;-75
2022/05/25 09:28:20;;;;;;;;;;;;;;;28.10;29.32;100486.38;5003384;28;6875;-75
2022/05/25 09:30:53;;;;;;;;;;;;;;;28.34;28.82;100482.31;5008976;28;7258;-73
2022/05/25 09:33:48;;;;;;;;;;;;;;;28.74;28.58;100500.66;4973723;28;6823;-73
2022/05/25 09:36:41;;;;;;;;;;;;;;;29.10;28.02;100492.69;5002469;28;6827;-73
2022/05/25 09:39:25;;;;;;;;;;;;;;;29.48;27.68;100485.47;5000210;28;6990;-73
2022/05/25 09:42:04;;;;;;;;;;;;;;;29.74;27.25;100491.72;5006194;28;6895;-73
2022/05/25 09:44:30;;;;;;;;;;;;;;;29.68;26.53;100488.41;5003202;28;6815;-73
2022/05/25 09:47:07;;;;;;;;;;;;;;;29.73;27.33;100489.97;4987234;28;6803;-73
2022/05/25 09:49:48;;;;;;;;;;;;;;;29.89;26.39;100489.53;4984985;28;7550;-73
2022/05/25 09:52:29;;;;;;;;;;;;;;;30.02;26.18;100495.28;4969826;28;6847;-73
2022/05/25 09:55:04;;;;;;;;;;;;;;;30.37;26.37;100487.16;5002843;28;7209;-73
2022/05/25 09:57:58;;;;;;;;;;;;;;;30.76;25.75;100484.06;4969289;28;6888;-73
2022/05/25 10:00:32;;;;;;;;;;;;;;;30.93;26.08;100499.34;5002441;28;6958;-73
2022/05/25 10:03:32;;;;;;;;;;;;;;;30.96;25.07;100493.97;4979974;28;7007;-73
2022/05/25 10:06:01;;;;;;;;;;;;;;;30.82;25.90;100493.56;4982593;28;7026;-73
2022/05/25 10:08:39;;;;;;;;;;;;;;;30.66;25.66;100490.59;4981435;28;6808;-72
2022/05/25 10:11:31;;;;;;;;;;;;;;;30.59;25.90;100493.41;4973632;28;6971;-73
2022/05/25 10:14:40;;;;;;;;;;;;;;;30.20;25.64;100496.50;4978157;28;6895;-73
2022/05/25 10:17:28;;;;;;;;;;;;;;;29.98;26.19;100494.50;5001174;28;8074;-73
2022/05/25 10:19:57;;;;;;;;;;;;;;;30.30;25.51;100495.25;4988966;28;7201;-73
2022/05/25 10:22:41;;;;;;;;;;;;;;;30.79;25.16;100491.03;4985815;28;6824;-73
2022/05/25 10:25:34;;;;;;;;;;;;;;;31.13;25.01;100484.53;4976379;28;6827;-73
2022/05/25 10:28:04;;;;;;;;;;;;;;;30.86;24.83;100497.84;4976747;28;6812;-73
2022/05/25 10:36:45;;;;;;;;;;;;;;;30.55;24.91;100489.16;5006108;28;6892;-73
2022/05/25 10:39:30;;;;;;;;;;;;;;;30.22;24.84;100497.28;4976289;28;6839;-73
2022/05/25 10:42:18;;;;;;;;;;;;;;;30.13;25.49;100489.66;5011222;28;6888;-73
2022/05/25 10:45:20;;;;;;;;;;;;;;;30.17;25.45;100493.97;4978096;28;6811;-73
2022/05/25 10:48:15;;;;;;;;;;;;;;;30.40;25.99;100495.84;4960968;28;8640;-73
2022/05/25 10:51:08;;;;;;;;;;;;;;;30.73;25.73;100494.78;4976526;28;6824;-73
2022/05/25 10:57:21;;;;;;;;;;;;;;;30.38;24.82;100492.38;5006243;28;7493;-73
2022/05/25 11:00:31;;;;;;;;;;;;;;;30.32;24.76;100492.59;5005450;28;6894;-73
2022/05/25 11:03:19;;;;;;;;;;;;;;;30.58;25.31;100483.75;4992653;28;7019;-73
2022/05/25 11:06:21;;;;;;;;;;;;;;;30.57;25.27;100483.84;4979145;28;7362;-73
2022/05/25 11:09:08;;;;;;;;;;;;;;;30.81;25.27;100487.44;4975944;28;6999;-73
2022/05/25 11:11:42;;;;;;;;;;;;;;;31.13;25.36;100495.97;4970293;28;6899;-73
2022/05/25 11:14:38;;;;;;;;;;;;;;;31.85;24.42;100488.91;4975326;28;7655;-73
2022/05/25 11:17:54;;;;;;;;;;;;;;;32.61;24.27;100486.72;4973852;28;7288;-73
2022/05/25 11:20:38;;;;;;;;;;;;;;;32.83;23.50;100482.19;4979033;28;6828;-73
2022/05/25 11:23:09;;;;;;;;;;;;;;;32.63;22.54;100482.22;5009608;28;7018;-74
2022/05/25 11:25:52;;;;;;;;;;;;;;;32.16;22.80;100486.81;4980069;28;6887;-74
2022/05/25 11:29:13;;;;;;;;;;;;;;;32.22;23.29;100491.00;4977268;28;6828;-74
2022/05/25 11:32:12;;;;;;;;;;;;;;;32.75;23.06;100472.88;4992643;28;7079;-74
2022/05/25 11:35:11;;;;;;;;;;;;;;;33.33;22.67;100466.75;4994238;28;7071;-74
2022/05/25 11:38:32;;;;;;;;;;;;;;;33.96;22.27;100474.44;4999484;28;6832;-74
2022/05/25 11:41:25;;;;;;;;;;;;;;;34.62;22.23;100470.31;5010546;28;6990;-74
2022/05/25 11:44:22;;;;;;;;;;;;;;;34.59;20.11;100475.78;4995140;28;7040;-74
2022/05/25 11:46:50;;;;;;;;;;;;;;;33.99;20.98;100466.31;4977377;28;7083;-74
2022/05/25 11:50:02;;;;;;;;;;;;;;;33.75;20.83;100485.19;4971272;28;7286;-74
2022/05/25 11:53:09;;;;;;;;;;;;;;;33.32;20.83;100475.66;4981653;28;8086;-73
2022/05/25 11:56:05;;;;;;;;;;;;;;;32.85;21.21;100473.34;4989449;28;8034;-74
2022/05/25 11:59:08;;;;;;;;;;;;;;;32.90;21.56;100468.66;4995886;28;7271;-73
2022/05/25 12:01:46;;;;;;;;;;;;;;;33.02;21.26;100470.78;4994623;28;6808;-73
2022/05/25 12:04:52;;;;;;;;;;;;;;;33.28;21.27;100467.91;4991341;28;6807;-73
2022/05/25 12:07:54;;;;;;;;;;;;;;;33.14;20.84;100469.38;4999372;28;6986;-73
2022/05/25 12:10:32;;;;;;;;;;;;;;;32.54;20.69;100455.16;4991135;28;6996;-73
2022/05/25 12:13:07;;;;;;;;;;;;;;;31.61;21.35;100474.81;4995937;28;6796;-73
2022/05/25 12:15:59;;;;;;;;;;;;;;;31.09;22.00;100459.94;4990785;28;6792;-73
2022/05/25 12:18:50;;;;;;;;;;;;;;;30.84;22.05;100463.50;5029670;28;6808;-73
2022/05/25 12:21:35;;;;;;;;;;;;;;;30.99;22.97;100458.56;5001705;28;7268;-73
2022/05/25 12:24:26;;;;;;;;;;;;;;;31.44;22.78;100468.38;4983013;28;8407;-73
2022/05/25 12:26:54;;;;;;;;;;;;;;;31.93;22.04;100464.75;4971459;28;6839;-74
2022/05/25 12:29:30;;;;;;;;;;;;;;;32.44;22.07;100440.56;4977792;28;6911;-73
2022/05/25 12:31:57;;;;;;;;;;;;;;;32.88;21.44;100462.56;4988683;28;7188;-73
2022/05/25 12:34:37;;;;;;;;;;;;;;;32.86;20.53;100454.66;4975244;28;7043;-74
2022/05/25 12:37:05;;;;;;;;;;;;;;;32.41;20.85;100469.88;5001982;28;7209;-74
2022/05/25 12:39:42;;;;;;;;;;;;;;;32.12;21.09;100470.16;4974678;28;7062;-74
2022/05/25 12:42:41;;;;;;;;;;;;;;;32.19;21.27;100460.16;4990146;28;6832;-74
2022/05/25 12:48:30;;;;;;;;;;;;;;;31.66;21.01;100461.41;4990116;28;6990;-73
2022/05/25 12:51:38;;;;;;;;;;;;;;;31.33;20.84;100475.00;4977942;28;6907;-73
2022/05/25 12:54:21;;;;;;;;;;;;;;;31.54;20.96;100481.25;4987230;28;6903;-73
2022/05/25 12:56:48;;;;;;;;;;;;;;;31.80;20.98;100474.09;5007580;28;6827;-73
2022/05/25 12:59:38;;;;;;;;;;;;;;;32.13;20.70;100458.63;4974814;28;7148;-73
2022/05/25 13:02:29;;;;;;;;;;;;;;;32.51;20.93;100465.91;5010483;28;7182;-73
2022/05/25 13:05:01;;;;;;;;;;;;;;;32.74;20.92;100458.75;4978907;28;7893;-73
2022/05/25 13:07:33;;;;;;;;;;;;;;;32.63;20.68;100461.00;4980168;28;6788;-73
2022/05/25 13:10:00;;;;;;;;;;;;;;;32.14;21.04;100470.09;5001336;28;6836;-73
2022/05/25 13:12:42;;;;;;;;;;;;;;;31.94;20.78;100471.75;4993175;28;6895;-73
2022/05/25 13:15:14;;;;;;;;;;;;;;;31.70;21.07;100481.53;4998595;28;6956;-74
2022/05/25 13:17:55;;;;;;;;;;;;;;;31.29;21.42;100488.34;5003004;28;6880;-73
2022/05/25 13:20:27;;;;;;;;;;;;;;;31.00;21.18;100484.09;4984837;28;7043;-73
2022/05/25 13:22:56;;;;;;;;;;;;;;;31.16;21.26;100477.34;5009738;28;6953;-73
2022/05/25 13:26:02;;;;;;;;;;;;;;;31.17;20.72;100476.41;5034299;28;7195;-73
2022/05/25 13:28:46;;;;;;;;;;;;;;;30.70;20.83;100477.22;5003802;28;6835;-73
2022/05/25 13:32:04;;;;;;;;;;;;;;;30.41;21.61;100471.13;5013484;28;9236;-74
2022/05/25 13:34:32;;;;;;;;;;;;;;;30.54;21.77;100476.00;4988406;28;6820;-74
2022/05/25 13:37:11;;;;;;;;;;;;;;;30.69;21.96;100471.97;5031243;28;7001;-74
2022/05/25 13:39:38;;;;;;;;;;;;;;;30.82;21.36;100467.13;5013696;28;6812;-74
2022/05/25 13:42:12;;;;;;;;;;;;;;;30.81;21.52;100479.50;5015057;28;7294;-74
2022/05/25 13:44:49;;;;;;;;;;;;;;;30.98;21.67;100470.06;5003090;28;7001;-74
2022/05/25 13:47:25;;;;;;;;;;;;;;;31.20;21.67;100480.72;5004278;28;6913;-74
2022/05/25 13:49:55;;;;;;;;;;;;;;;31.33;21.22;100473.22;5020015;28;7078;-74
2022/05/25 13:52:22;;;;;;;;;;;;;;;31.40;21.01;100468.56;5018995;28;6808;-74
2022/05/25 13:54:55;;;;;;;;;;;;;;;31.48;21.36;100458.53;5019703;28;7411;-74
2022/05/25 13:57:39;;;;;;;;;;;;;;;31.56;21.23;100463.53;5020169;28;6803;-74
2022/05/25 14:00:13;;;;;;;;;;;;;;;31.65;20.76;100468.47;5012398;28;7187;-74